createdAt,value
2023-01-26T00:00:04.855Z,16.50
2023-01-26T00:02:33.196Z,8.43
2023-01-26T00:05:06.820Z,10.70
2023-01-26T00:07:33.556Z,13.27
2023-01-26T00:10:04.929Z,14.53
2023-01-26T00:12:34.101Z,12.07
2023-01-26T00:15:04.759Z,14.17
2023-01-26T00:17:32.957Z,18.03
2023-01-26T00:20:01.544Z,14.10
2023-01-26T00:22:30.789Z,14.00
2023-01-26T00:25:00.016Z,12.83
2023-01-26T00:27:28.993Z,14.37
2023-01-26T00:29:55.691Z,17.10
2023-01-26T00:32:22.492Z,14.70
2023-01-26T00:34:49.203Z,14.93
2023-01-26T00:37:15.826Z,16.17
2023-01-26T00:39:43.689Z,14.50
2023-01-26T00:42:11.085Z,17.23
2023-01-26T00:44:40.437Z,11.43
2023-01-26T00:47:08.057Z,14.93
2023-01-26T00:49:35.708Z,11.43
2023-01-26T00:52:02.834Z,13.43
2023-01-26T00:54:30.247Z,17.23
2023-01-26T00:56:57.326Z,16.43
2023-01-26T00:59:24.684Z,14.53
2023-01-26T01:01:52.517Z,13.33
2023-01-26T01:04:22.678Z,15.40
2023-01-26T01:09:39.378Z,13.83
2023-01-26T01:12:09.659Z,13.40
2023-01-26T01:14:36.201Z,16.67
2023-01-26T01:17:02.640Z,13.23
2023-01-26T01:19:31.344Z,11.97
2023-01-26T01:21:57.860Z,18.30
2023-01-26T01:24:24.980Z,12.87
2023-01-26T01:26:54.050Z,12.07
2023-01-26T01:29:20.887Z,9.47
2023-01-26T01:31:48.888Z,12.20
2023-01-26T01:34:16.879Z,11.13
2023-01-26T01:36:43.589Z,9.03
2023-01-26T01:39:11.971Z,9.30
2023-01-26T01:41:39.553Z,10.00
2023-01-26T01:44:13.280Z,12.10
2023-01-26T01:46:44.311Z,10.17
2023-01-26T01:49:10.956Z,10.60
2023-01-26T01:51:40.897Z,7.50
2023-01-26T01:54:09.972Z,14.77
2023-01-26T01:56:39.668Z,9.93
2023-01-26T01:59:08.385Z,7.47
2023-01-26T02:01:35.454Z,6.30
2023-01-26T02:04:04.605Z,5.53
2023-01-26T02:06:34.455Z,4.73
2023-01-26T02:09:01.692Z,7.20
2023-01-26T02:11:36.631Z,7.23
2023-01-26T02:14:05.213Z,8.17
2023-01-26T02:16:32.259Z,6.50
2023-01-26T02:19:00.143Z,5.30
2023-01-26T02:21:29.555Z,10.23
2023-01-26T02:24:16.507Z,8.03
2023-01-26T02:26:43.246Z,7.25
2023-01-26T02:29:11.454Z,7.10
2023-01-26T02:31:42.596Z,6.93
2023-01-26T02:34:10.936Z,6.60
2023-01-26T02:36:37.742Z,10.53
2023-01-26T02:39:20.870Z,7.60
2023-01-26T02:42:07.058Z,5.83
2023-01-26T02:44:34.749Z,4.43
2023-01-26T02:47:11.898Z,4.33
2023-01-26T02:49:50.333Z,4.63
2023-01-26T02:52:21.544Z,5.53
2023-01-26T02:55:13.367Z,6.63
2023-01-26T02:57:42.073Z,3.73
2023-01-26T03:00:13.925Z,6.03
2023-01-26T03:02:48.972Z,4.30
2023-01-26T03:05:17.383Z,7.37
2023-01-26T03:07:45.301Z,5.77
2023-01-26T03:10:14.798Z,5.53
2023-01-26T03:12:41.813Z,4.50
2023-01-26T03:15:27.478Z,6.50
2023-01-26T03:18:34.950Z,5.05
2023-01-26T03:21:25.497Z,4.57
2023-01-26T03:24:17.319Z,3.20
2023-01-26T03:27:08.285Z,6.37
2023-01-26T03:29:43.351Z,3.33
2023-01-26T03:32:12.576Z,4.60
2023-01-26T03:34:42.247Z,4.17
2023-01-26T03:37:09.035Z,4.97
2023-01-26T03:40:13.617Z,6.37
2023-01-26T03:43:00.963Z,5.77
2023-01-26T03:45:56.115Z,6.57
2023-01-26T03:48:44.807Z,5.10
2023-01-26T03:51:30.350Z,4.73
2023-01-26T03:54:17.489Z,6.63
2023-01-26T03:56:45.014Z,3.13
2023-01-26T04:02:19.481Z,5.20
2023-01-26T04:05:05.737Z,5.57
2023-01-26T04:07:53.942Z,5.47
2023-01-26T04:10:21.830Z,2.47
2023-01-26T04:13:08.637Z,3.10
2023-01-26T04:15:54.936Z,4.87
2023-01-26T04:18:40.626Z,3.73
2023-01-26T04:21:25.897Z,4.33
2023-01-26T04:23:57.573Z,3.30
2023-01-26T04:26:26.846Z,3.13
2023-01-26T04:28:54.400Z,4.57
2023-01-26T04:31:20.906Z,4.53
2023-01-26T04:33:57.170Z,3.03
2023-01-26T04:36:25.405Z,5.20
2023-01-26T04:38:53.038Z,3.57
2023-01-26T04:41:23.110Z,6.00
2023-01-26T04:43:57.263Z,6.25
2023-01-26T04:46:24.222Z,4.37
2023-01-26T04:48:53.222Z,3.60
2023-01-26T04:51:20.833Z,6.80
2023-01-26T04:53:48.362Z,3.40
2023-01-26T04:56:19.425Z,4.63
2023-01-26T04:58:47.389Z,3.97
2023-01-26T05:01:16.867Z,5.27
2023-01-26T05:03:47.319Z,5.57
2023-01-26T05:06:14.195Z,4.27
2023-01-26T05:08:44.654Z,5.33
2023-01-26T05:11:12.772Z,4.50
2023-01-26T05:13:59.297Z,4.03
2023-01-26T05:16:40.763Z,5.70
2023-01-26T05:19:21.049Z,4.93
2023-01-26T05:22:12.501Z,6.03
2023-01-26T05:24:44.668Z,4.27
2023-01-26T05:27:26.150Z,4.70
2023-01-26T05:30:00.742Z,4.87
2023-01-26T05:32:31.335Z,3.87
2023-01-26T05:35:00.105Z,4.83
2023-01-26T05:40:35.348Z,3.40
2023-01-26T05:43:03.445Z,4.80
2023-01-26T05:45:49.620Z,4.70
2023-01-26T05:49:05.021Z,4.57
2023-01-26T05:51:39.290Z,4.30
2023-01-26T05:54:25.184Z,6.70
2023-01-26T05:56:54.194Z,2.90
2023-01-26T06:03:11.111Z,3.87
2023-01-26T06:05:39.059Z,5.50
2023-01-26T06:08:19.660Z,6.93
2023-01-26T06:10:59.475Z,5.30
2023-01-26T06:13:39.263Z,4.53
2023-01-26T06:16:17.116Z,3.67
2023-01-26T06:18:47.746Z,5.33
2023-01-26T06:21:15.435Z,5.83
2023-01-26T06:23:43.881Z,6.67
2023-01-26T06:26:11.101Z,7.63
2023-01-26T06:28:43.411Z,8.40
2023-01-26T06:31:10.964Z,8.30
2023-01-26T06:33:39.643Z,7.57
2023-01-26T06:36:10.126Z,6.53
2023-01-26T06:38:37.706Z,5.00
2023-01-26T06:41:05.399Z,4.40
2023-01-26T06:43:37.238Z,5.97
2023-01-26T06:46:31.055Z,6.03
2023-01-26T06:52:25.506Z,6.10
2023-01-26T06:54:57.503Z,8.03
2023-01-26T06:57:56.296Z,3.80
2023-01-26T07:00:41.693Z,6.67
2023-01-26T07:03:14.077Z,6.17
2023-01-26T07:05:40.789Z,6.47
2023-01-26T07:08:08.659Z,5.00
2023-01-26T07:10:35.851Z,4.37
2023-01-26T07:13:03.656Z,7.40
2023-01-26T07:15:30.086Z,5.33
2023-01-26T07:17:57.632Z,5.30
2023-01-26T07:20:24.698Z,4.93
2023-01-26T07:22:52.183Z,5.43
2023-01-26T07:25:19.317Z,5.37
2023-01-26T07:27:46.148Z,4.33
2023-01-26T07:30:16.277Z,5.30
2023-01-26T07:32:42.950Z,7.07
2023-01-26T07:35:11.701Z,4.50
2023-01-26T07:37:38.643Z,4.37
2023-01-26T07:40:06.009Z,4.17
2023-01-26T07:42:32.734Z,5.03
2023-01-26T07:45:18.663Z,4.60
2023-01-26T07:47:45.791Z,2.80
2023-01-26T07:50:13.981Z,4.20
2023-01-26T07:52:41.190Z,6.17
2023-01-26T07:55:08.752Z,3.80
2023-01-26T07:57:35.388Z,4.33
2023-01-26T08:00:02.156Z,7.10
2023-01-26T08:02:38.500Z,5.20
2023-01-26T08:05:08.398Z,5.27
2023-01-26T08:07:35.345Z,3.40
2023-01-26T08:10:02.281Z,4.87
2023-01-26T08:12:29.047Z,3.97
2023-01-26T08:14:56.078Z,6.07
2023-01-26T08:17:23.154Z,6.77
2023-01-26T08:19:49.858Z,6.57
2023-01-26T08:22:16.525Z,5.27
2023-01-26T08:24:46.010Z,4.13
2023-01-26T08:27:12.671Z,4.90
2023-01-26T08:29:39.292Z,4.13
2023-01-26T08:32:06.267Z,6.27
2023-01-26T08:34:33.076Z,4.30
2023-01-26T08:36:59.778Z,6.27
2023-01-26T08:39:27.484Z,5.57
2023-01-26T08:41:54.725Z,5.20
2023-01-26T08:44:25.017Z,4.70
2023-01-26T08:46:51.931Z,5.20
2023-01-26T08:49:18.971Z,4.93
2023-01-26T08:51:45.803Z,5.43
2023-01-26T08:54:12.729Z,4.17
2023-01-26T08:56:42.343Z,4.93
2023-01-26T08:59:09.252Z,4.00
2023-01-26T09:01:36.138Z,4.43
2023-01-26T09:04:03.689Z,4.60
2023-01-26T09:06:33.150Z,4.70
2023-01-26T09:08:59.823Z,8.03
2023-01-26T09:11:26.624Z,7.60
2023-01-26T09:13:59.470Z,5.43
2023-01-26T09:16:26.347Z,4.83
2023-01-26T09:18:53.736Z,3.93
2023-01-26T09:21:21.021Z,4.73
2023-01-26T09:23:47.632Z,5.60
2023-01-26T09:26:14.301Z,6.73
2023-01-26T09:28:40.881Z,7.40
2023-01-26T09:31:09.468Z,6.87
2023-01-26T09:33:36.146Z,5.53
2023-01-26T09:36:04.000Z,7.40
2023-01-26T09:38:31.604Z,8.87
2023-01-26T09:41:07.763Z,5.30
2023-01-26T09:43:46.204Z,5.65
2023-01-26T09:46:16.098Z,7.67
2023-01-26T09:48:42.892Z,4.53
2023-01-26T09:51:12.212Z,6.63
2023-01-26T09:53:42.009Z,5.67
2023-01-26T09:56:14.948Z,4.87
2023-01-26T09:58:42.996Z,6.80
2023-01-26T10:01:17.405Z,6.03
2023-01-26T10:03:50.516Z,5.80
2023-01-26T10:06:23.810Z,9.93
2023-01-26T10:09:12.144Z,5.47
2023-01-26T10:11:46.878Z,6.23
2023-01-26T10:14:21.765Z,5.97
2023-01-26T10:16:49.865Z,4.47
2023-01-26T10:19:27.084Z,6.13
2023-01-26T10:21:54.690Z,6.47
2023-01-26T10:24:22.798Z,5.93
2023-01-26T10:26:51.670Z,5.90
2023-01-26T10:29:18.969Z,6.30
2023-01-26T10:31:46.268Z,6.07
2023-01-26T10:34:17.589Z,5.30
2023-01-26T10:36:50.510Z,6.43
2023-01-26T10:39:18.640Z,8.60
2023-01-26T10:41:58.100Z,5.73
2023-01-26T10:44:40.672Z,7.33
2023-01-26T10:47:10.624Z,5.27
2023-01-26T10:52:26.186Z,4.87
2023-01-26T10:55:09.835Z,6.97
2023-01-26T10:57:42.166Z,6.93
2023-01-26T11:00:22.255Z,5.50
2023-01-26T11:02:54.005Z,5.40
2023-01-26T11:05:24.945Z,7.03
2023-01-26T11:07:59.034Z,6.23
2023-01-26T11:10:38.455Z,10.40
2023-01-26T11:13:22.109Z,6.93
2023-01-26T11:15:54.372Z,7.20
2023-01-26T11:18:57.109Z,5.80
2023-01-26T11:21:34.978Z,5.37
2023-01-26T11:24:14.866Z,3.53
2023-01-26T11:27:07.968Z,4.90
2023-01-26T11:29:55.294Z,6.53
2023-01-26T11:32:45.657Z,5.60
2023-01-26T11:35:32.605Z,5.17
2023-01-26T11:38:18.314Z,5.28
2023-01-26T11:40:58.632Z,4.50
2023-01-26T11:43:58.077Z,7.07
2023-01-26T11:46:30.106Z,4.60
2023-01-26T11:49:03.960Z,7.07
2023-01-26T11:51:55.262Z,6.63
2023-01-26T11:54:28.129Z,5.63
2023-01-26T11:57:09.064Z,5.90
2023-01-26T11:59:45.273Z,5.60
2023-01-26T12:02:30.135Z,6.72
2023-01-26T12:05:02.941Z,6.47
2023-01-26T12:07:36.363Z,8.97
2023-01-26T12:12:55.771Z,5.72
2023-01-26T12:15:36.685Z,7.17
2023-01-26T12:18:20.977Z,7.87
2023-01-26T12:21:06.653Z,7.97
2023-01-26T12:23:52.415Z,5.77
2023-01-26T12:26:22.131Z,7.07
2023-01-26T12:29:09.684Z,6.63
2023-01-26T12:31:40.602Z,7.03
2023-01-26T12:34:11.723Z,6.53
2023-01-26T12:36:56.857Z,6.17
2023-01-26T12:39:39.808Z,9.20
2023-01-26T12:42:16.179Z,7.40
2023-01-26T12:44:46.123Z,7.53
2023-01-26T12:47:45.237Z,6.73
2023-01-26T12:50:20.900Z,9.53
2023-01-26T12:52:47.529Z,7.35
2023-01-26T12:55:17.943Z,9.47
2023-01-26T12:57:46.605Z,6.77
2023-01-26T13:00:18.671Z,7.37
2023-01-26T13:02:46.597Z,8.07
2023-01-26T13:05:32.754Z,7.63
2023-01-26T13:07:59.471Z,8.95
2023-01-26T13:10:27.656Z,6.37
2023-01-26T13:13:02.054Z,7.20
2023-01-26T13:15:30.106Z,7.30
2023-01-26T13:17:57.823Z,8.10
2023-01-26T13:20:24.854Z,10.47
2023-01-26T13:22:52.308Z,6.03
2023-01-26T13:25:19.000Z,10.40
2023-01-26T13:27:47.038Z,9.27
2023-01-26T13:30:28.092Z,14.20
2023-01-26T13:33:02.519Z,6.83
2023-01-26T13:35:29.475Z,8.77
2023-01-26T13:37:58.727Z,9.17
2023-01-26T13:40:29.983Z,8.83
2023-01-26T13:42:57.867Z,9.93
2023-01-26T13:45:27.917Z,10.87
2023-01-26T13:47:56.864Z,10.43
2023-01-26T13:50:29.303Z,8.10
2023-01-26T13:52:55.899Z,11.47
2023-01-26T13:55:24.766Z,10.37
2023-01-26T13:58:10.356Z,5.67
2023-01-26T14:00:37.005Z,8.30
2023-01-26T14:03:03.668Z,7.30
2023-01-26T14:05:31.676Z,11.60
2023-01-26T14:07:58.432Z,7.27
2023-01-26T14:10:25.236Z,6.17
2023-01-26T14:12:56.645Z,9.77
2023-01-26T14:15:25.230Z,6.43
2023-01-26T14:17:56.632Z,4.93
2023-01-26T14:20:26.358Z,10.50
2023-01-26T14:23:13.011Z,8.63
2023-01-26T14:25:41.683Z,13.57
2023-01-26T14:28:13.102Z,9.80
2023-01-26T14:30:41.061Z,9.40
2023-01-26T14:33:13.130Z,10.03
2023-01-26T14:35:40.142Z,10.33
2023-01-26T14:38:12.742Z,9.37
2023-01-26T14:40:46.330Z,8.07
2023-01-26T14:43:13.604Z,10.43
2023-01-26T14:45:44.104Z,8.40
2023-01-26T14:48:12.311Z,8.90
2023-01-26T14:50:40.097Z,8.57
2023-01-26T14:53:15.991Z,11.80
2023-01-26T14:55:43.546Z,8.30
2023-01-26T14:58:15.574Z,6.27
2023-01-26T15:00:42.251Z,8.10
2023-01-26T15:03:13.747Z,7.97
2023-01-26T15:05:43.399Z,8.43
2023-01-26T15:08:21.479Z,8.20
2023-01-26T15:10:55.577Z,8.97
2023-01-26T15:13:23.816Z,9.40
2023-01-26T15:16:04.164Z,9.93
2023-01-26T15:18:32.369Z,10.60
2023-01-26T15:21:13.735Z,10.90
2023-01-26T15:23:45.196Z,7.50
2023-01-26T15:26:30.980Z,10.10
2023-01-26T15:29:01.267Z,10.13
2023-01-26T15:31:33.781Z,7.97
2023-01-26T15:43:27.612Z,9.27
2023-01-26T15:54:02.574Z,8.87
2023-01-26T15:56:29.575Z,6.90
2023-01-26T15:58:55.963Z,9.27
2023-01-26T16:01:23.848Z,10.03
2023-01-26T16:03:52.141Z,10.17
2023-01-26T16:12:32.300Z,8.63
2023-01-26T16:14:59.962Z,7.80
2023-01-26T16:20:16.409Z,10.93
2023-01-26T16:22:43.719Z,9.33
2023-01-26T16:25:21.423Z,9.83
2023-01-26T16:27:48.463Z,10.93
2023-01-26T16:30:14.969Z,11.43
2023-01-26T16:32:42.605Z,10.87
2023-01-26T16:35:13.635Z,12.80
2023-01-26T16:37:42.640Z,8.43
2023-01-26T16:40:10.279Z,10.63
2023-01-26T16:42:39.131Z,9.53
2023-01-26T16:45:06.282Z,10.27
2023-01-26T16:47:32.974Z,9.47
2023-01-26T16:49:59.800Z,11.77
2023-01-26T16:52:26.235Z,9.73
2023-01-26T16:54:55.148Z,10.43
2023-01-26T16:57:22.876Z,10.53
2023-01-26T16:59:49.424Z,10.03
2023-01-26T17:02:21.858Z,7.57
2023-01-26T17:04:48.739Z,10.07
2023-01-26T17:07:15.170Z,11.53
2023-01-26T17:09:41.699Z,11.53
2023-01-26T17:12:12.748Z,10.50
2023-01-26T17:14:41.210Z,8.30
2023-01-26T17:17:09.794Z,11.93
2023-01-26T17:19:36.925Z,11.87
2023-01-26T17:22:07.060Z,9.60
2023-01-26T17:24:35.447Z,7.47
2023-01-26T17:27:02.292Z,11.30
2023-01-26T17:35:28.136Z,10.07
2023-01-26T17:38:04.770Z,11.63
2023-01-26T17:43:13.948Z,8.47
2023-01-26T17:45:47.022Z,11.27
2023-01-26T17:48:15.936Z,9.67
2023-01-26T17:50:49.057Z,12.87
2023-01-26T17:53:16.170Z,8.90
2023-01-26T17:55:43.302Z,12.70
2023-01-26T17:58:10.944Z,11.93
2023-01-26T18:00:40.457Z,8.37
2023-01-26T18:03:12.826Z,13.97
2023-01-26T18:05:49.374Z,10.73
2023-01-26T18:08:24.925Z,9.63
2023-01-26T18:13:48.744Z,8.57
2023-01-26T18:16:23.127Z,9.07
2023-01-26T18:19:10.664Z,9.53
2023-01-26T18:21:51.073Z,14.57
2023-01-26T18:24:17.900Z,12.68
2023-01-26T18:27:08.702Z,8.60
2023-01-26T18:29:35.949Z,12.47
2023-01-26T18:32:06.163Z,8.87
2023-01-26T18:34:40.378Z,12.33
2023-01-26T18:37:10.001Z,9.10
2023-01-26T18:39:38.444Z,11.00
2023-01-26T18:42:13.298Z,12.43
2023-01-26T18:44:41.152Z,10.03
2023-01-26T18:47:09.319Z,10.40
2023-01-26T18:49:35.816Z,9.43
2023-01-26T18:52:02.311Z,14.10
2023-01-26T18:54:29.443Z,10.33
2023-01-26T18:56:57.318Z,12.33
2023-01-26T18:59:24.368Z,11.20
2023-01-26T19:01:56.743Z,9.73
2023-01-26T19:04:23.461Z,12.23
2023-01-26T19:06:51.758Z,14.03
2023-01-26T19:09:21.786Z,9.23
2023-01-26T19:11:55.614Z,10.07
2023-01-26T19:14:22.952Z,8.20
2023-01-26T19:16:51.732Z,11.20
2023-01-26T19:19:18.794Z,8.83
2023-01-26T19:21:45.441Z,14.30
2023-01-26T19:24:18.524Z,12.43
2023-01-26T19:26:46.124Z,11.90
2023-01-26T19:29:14.692Z,8.57
2023-01-26T19:31:43.496Z,13.67
2023-01-26T19:34:13.512Z,10.40
2023-01-26T19:36:40.502Z,12.73
2023-01-26T19:39:13.894Z,9.47
2023-01-26T19:41:42.286Z,10.40
2023-01-26T19:44:08.861Z,9.63
2023-01-26T19:46:36.450Z,7.87
2023-01-26T19:49:07.310Z,9.63
2023-01-26T19:51:33.699Z,9.57
2023-01-26T19:54:03.074Z,8.77
2023-01-26T19:56:32.361Z,11.80
2023-01-26T19:59:00.850Z,8.40
2023-01-26T20:01:28.965Z,8.73
2023-01-26T20:03:58.767Z,12.37
2023-01-26T20:06:28.070Z,8.87
2023-01-26T20:08:55.663Z,8.30
2023-01-26T20:11:25.109Z,7.47
2023-01-26T20:13:59.821Z,8.00
2023-01-26T20:16:30.884Z,8.33
2023-01-26T20:19:10.940Z,8.57
2023-01-26T20:21:40.760Z,9.27
2023-01-26T20:24:09.353Z,9.40
2023-01-26T20:26:36.004Z,9.23
2023-01-26T20:29:03.764Z,13.87
2023-01-26T20:34:14.951Z,9.20
2023-01-26T20:36:42.906Z,11.20
2023-01-26T20:39:13.016Z,6.90
2023-01-26T20:41:40.761Z,9.67
2023-01-26T20:44:07.675Z,6.60
2023-01-26T20:46:37.987Z,8.57
2023-01-26T20:49:11.723Z,8.57
2023-01-26T20:51:42.489Z,12.00
2023-01-26T20:54:14.154Z,8.70
2023-01-26T20:56:41.380Z,6.13
2023-01-26T20:59:19.405Z,11.10
2023-01-26T21:01:48.333Z,10.17
2023-01-26T21:04:16.947Z,8.40
2023-01-26T21:06:43.524Z,9.17
2023-01-26T21:09:12.669Z,13.57
2023-01-26T21:11:40.687Z,8.87
2023-01-26T21:14:11.199Z,11.20
2023-01-26T21:16:37.624Z,9.23
2023-01-26T21:19:04.975Z,7.97
2023-01-26T21:21:39.339Z,12.07
2023-01-26T21:24:07.536Z,9.07
2023-01-26T21:26:34.623Z,10.10
2023-01-26T21:29:09.606Z,10.13
2023-01-26T21:31:38.684Z,9.43
2023-01-26T21:34:08.907Z,7.37
2023-01-26T21:36:35.358Z,11.53
2023-01-26T21:39:01.880Z,10.63
2023-01-26T21:41:48.706Z,11.73
2023-01-26T21:44:22.395Z,6.80
2023-01-26T21:46:54.702Z,11.20
2023-01-26T21:49:21.869Z,7.07
2023-01-26T21:52:07.021Z,9.30
2023-01-26T21:54:41.003Z,8.57
2023-01-26T21:57:32.468Z,8.70
2023-01-26T21:59:58.851Z,5.17
2023-01-26T22:02:28.914Z,9.57
2023-01-26T22:04:55.382Z,7.20
2023-01-26T22:07:21.963Z,11.13
2023-01-26T22:09:49.045Z,9.43
2023-01-26T22:12:16.471Z,10.47
2023-01-26T22:14:42.938Z,9.97
2023-01-26T22:17:09.393Z,7.97
2023-01-26T22:19:35.770Z,9.13
2023-01-26T22:22:05.522Z,7.67
2023-01-26T22:24:34.613Z,11.47
2023-01-26T22:27:22.005Z,8.98
2023-01-26T22:29:48.913Z,8.10
2023-01-26T22:32:15.433Z,7.00
2023-01-26T22:34:42.045Z,10.53
2023-01-26T22:37:10.562Z,7.53
2023-01-26T22:39:37.280Z,10.97
2023-01-26T22:42:11.201Z,8.77
2023-01-26T22:44:38.960Z,8.70
2023-01-26T22:47:05.754Z,10.47
2023-01-26T22:49:33.769Z,9.93
2023-01-26T22:52:00.650Z,10.83
2023-01-26T22:54:27.851Z,9.97
2023-01-26T22:56:54.277Z,8.90
2023-01-26T22:59:21.977Z,8.07
2023-01-26T23:01:50.016Z,8.80
2023-01-26T23:04:16.679Z,8.67
2023-01-26T23:06:45.833Z,10.33
2023-01-26T23:09:14.813Z,8.90
2023-01-26T23:11:46.079Z,9.37
2023-01-26T23:17:02.091Z,8.10
2023-01-26T23:19:32.331Z,13.70
2023-01-26T23:21:58.691Z,8.03
2023-01-26T23:24:25.085Z,9.77
2023-01-26T23:26:52.506Z,7.10
2023-01-26T23:29:20.973Z,11.00
2023-01-26T23:31:47.817Z,6.87
2023-01-26T23:34:14.312Z,8.43
2023-01-26T23:36:42.837Z,9.70
2023-01-26T23:39:10.351Z,6.90
2023-01-26T23:41:38.843Z,8.77
2023-01-26T23:44:06.120Z,8.07
2023-01-26T23:46:34.180Z,10.13
2023-01-26T23:49:00.899Z,12.37
2023-01-26T23:51:29.047Z,8.73
2023-01-26T23:53:55.864Z,9.03
2023-01-26T23:56:24.347Z,10.20
2023-01-26T23:58:50.941Z,12.37
